Time;durP1;ratioP1;P1;durP2;ratioP2;P2;SDS_P1;SDS_P2;PMS_P1;PMS_P2;Temp;Humidity;BMP_temperature;BMP_pressure;BME280_temperature;BME280_humidity;BME280_pressure;Samples;Min_cycle;Max_cycle;Signal;HPM_P1;HPM_P2
2022/08/27 00:00:39;;;;;;;5.22;1.92;;;18.50;82.20;;;;;;4949623;29;20092;-62
2022/08/27 00:03:05;;;;;;;6.07;1.88;;;18.50;82.40;;;;;;4935111;29;20517;-61
2022/08/27 00:05:31;;;;;;;3.38;1.40;;;18.40;82.50;;;;;;4949229;29;20028;-61
2022/08/27 00:07:56;;;;;;;4.43;1.80;;;18.40;82.60;;;;;;4935504;29;20088;-63
2022/08/27 00:10:25;;;;;;;5.57;1.60;;;18.40;82.60;;;;;;4935047;29;20147;-61
2022/08/27 00:12:52;;;;;;;5.68;1.60;;;18.40;82.70;;;;;;4934340;29;20032;-62
2022/08/27 00:15:18;;;;;;;4.15;1.65;;;18.40;82.70;;;;;;4935174;29;20035;-61
2022/08/27 00:17:45;;;;;;;2.90;1.50;;;18.40;82.70;;;;;;4934874;29;20024;-62
2022/08/27 00:20:15;;;;;;;4.47;1.90;;;18.40;82.80;;;;;;4933324;29;20020;-62
2022/08/27 00:22:41;;;;;;;2.70;1.40;;;18.40;82.80;;;;;;4934847;29;20028;-62
2022/08/27 00:25:06;;;;;;;5.22;1.60;;;18.30;82.80;;;;;;4935012;29;20106;-62
2022/08/27 00:27:32;;;;;;;6.80;1.80;;;18.30;82.80;;;;;;4933779;29;20099;-61
2022/08/27 00:29:58;;;;;;;5.55;1.90;;;18.30;82.80;;;;;;4934105;29;20030;-61
2022/08/27 00:32:23;;;;;;;4.53;1.70;;;18.30;82.70;;;;;;4934567;29;20055;-62
2022/08/27 00:34:49;;;;;;;5.18;1.70;;;18.30;82.80;;;;;;4933853;29;20469;-61
2022/08/27 00:37:14;;;;;;;4.80;1.95;;;18.30;82.80;;;;;;4934967;29;20030;-61
2022/08/27 00:39:40;;;;;;;4.53;1.65;;;18.30;82.80;;;;;;4932599;29;20078;-64
2022/08/27 00:42:06;;;;;;;5.63;1.63;;;18.30;82.80;;;;;;4933129;29;20019;-61
2022/08/27 00:44:32;;;;;;;6.10;2.10;;;18.30;82.80;;;;;;4932908;29;20032;-62
2022/08/27 00:47:01;;;;;;;4.25;2.05;;;18.20;82.80;;;;;;4933365;29;20106;-61
2022/08/27 00:49:37;;;;;;;6.60;1.95;;;18.20;82.90;;;;;;4932762;29;20094;-65
2022/08/27 00:52:47;;;;;;;3.38;1.88;;;18.20;82.90;;;;;;4933992;29;20031;-65
2022/08/27 00:55:17;;;;;;;5.25;1.88;;;18.20;83.00;;;;;;4874399;29;20111;-65
2022/08/27 00:57:48;;;;;;;4.22;1.67;;;18.20;83.00;;;;;;4927381;29;20066;-65
2022/08/27 01:00:15;;;;;;;;;;;18.20;83.00;;;;;;4935128;29;20027;-66
2022/08/27 01:02:42;;;;;;;4.05;1.67;;;18.20;83.00;;;;;;4933429;29;19911;-62
2022/08/27 01:05:14;;;;;;;4.78;1.90;;;18.10;82.90;;;;;;4934391;29;20038;-66
2022/08/27 01:07:41;;;;;;;3.72;1.70;;;18.10;83.70;;;;;;4934106;29;20027;-66
2022/08/27 01:10:12;;;;;;;3.80;1.60;;;18.20;83.10;;;;;;4933824;29;20024;-65
2022/08/27 01:12:38;;;;;;;3.60;2.00;;;18.20;83.00;;;;;;4948624;29;20043;-66
2022/08/27 01:15:07;;;;;;;3.92;2.15;;;18.20;83.00;;;;;;4934444;29;20020;-66
2022/08/27 01:17:33;;;;;;;4.35;2.22;;;18.10;83.00;;;;;;4933701;29;20039;-65
2022/08/27 01:20:04;;;;;;;5.43;1.80;;;18.10;83.10;;;;;;4934395;29;20334;-67
2022/08/27 01:22:55;;;;;;;3.03;1.45;;;18.20;83.20;;;;;;4934202;29;20098;-66
2022/08/27 01:25:22;;;;;;;4.28;1.58;;;18.20;83.20;;;;;;4934395;29;20172;-67
2022/08/27 01:27:49;;;;;;;5.43;2.33;;;18.10;83.20;;;;;;4932712;29;20492;-65
2022/08/27 01:30:19;;;;;;;6.38;2.03;;;18.10;83.40;;;;;;4933867;29;20110;-67
2022/08/27 01:32:45;;;;;;;2.20;1.30;;;18.00;83.40;;;;;;4933895;29;20024;-66
2022/08/27 01:35:13;;;;;;;4.72;1.80;;;18.00;83.60;;;;;;4934087;29;20448;-66
2022/08/27 01:37:40;;;;;;;2.75;1.60;;;18.00;83.70;;;;;;4932989;29;20385;-66
2022/08/27 01:40:07;;;;;;;4.47;1.58;;;18.00;83.70;;;;;;4935418;29;20492;-65
2022/08/27 01:42:41;;;;;;;2.63;1.88;;;18.00;83.80;;;;;;4937599;29;20030;-67
2022/08/27 01:45:14;;;;;;;3.42;1.70;;;17.90;83.80;;;;;;4937473;29;20035;-67
2022/08/27 01:47:40;;;;;;;3.35;1.98;;;17.80;83.90;;;;;;4937725;29;20031;-67
2022/08/27 01:50:09;;;;;;;3.33;1.88;;;17.80;84.00;;;;;;4937852;29;20054;-67
2022/08/27 01:52:35;;;;;;;4.15;1.85;;;17.80;84.20;;;;;;4937033;29;20063;-62
2022/08/27 01:55:01;;;;;;;3.67;1.90;;;17.70;84.20;;;;;;4937789;29;20055;-62
2022/08/27 01:57:27;;;;;;;5.13;1.98;;;17.70;84.30;;;;;;4936354;29;20020;-61
2022/08/27 01:59:55;;;;;;;4.10;1.77;;;17.60;84.50;;;;;;4936960;29;20103;-61
2022/08/27 02:02:21;;;;;;;4.32;2.03;;;17.60;84.70;;;;;;4936031;29;20026;-61
2022/08/27 02:04:49;;;;;;;3.83;1.67;;;17.50;84.90;;;;;;4937220;29;20036;-61
2022/08/27 02:07:15;;;;;;;5.57;2.33;;;17.40;85.10;;;;;;4936185;29;20381;-61
2022/08/27 02:09:40;;;;;;;4.35;1.90;;;17.40;85.30;;;;;;4937095;29;20034;-61
2022/08/27 02:12:06;;;;;;;8.20;2.22;;;17.30;85.50;;;;;;4936496;29;20102;-61
2022/08/27 02:14:32;;;;;;;5.55;1.95;;;17.30;85.60;;;;;;4935813;29;20024;-61
2022/08/27 02:16:57;;;;;;;7.70;2.33;;;17.20;85.80;;;;;;4937348;29;20034;-61
2022/08/27 02:19:23;;;;;;;4.07;1.88;;;17.10;86.10;;;;;;4936675;29;20108;-61
2022/08/27 02:21:49;;;;;;;5.38;2.70;;;17.00;86.40;;;;;;4937091;29;20024;-61
2022/08/27 02:24:15;;;;;;;5.60;1.90;;;16.90;86.70;;;;;;4937285;29;20020;-61
2022/08/27 02:26:41;;;;;;;5.63;2.10;;;16.80;87.00;;;;;;4936095;29;20054;-62
2022/08/27 02:29:07;;;;;;;3.08;1.95;;;16.70;87.20;;;;;;4937174;29;20609;-61
2022/08/27 02:31:32;;;;;;;6.57;1.70;;;16.60;87.30;;;;;;4936640;29;20556;-62
2022/08/27 02:33:59;;;;;;;4.63;1.85;;;16.60;87.60;;;;;;4936128;29;20536;-65
2022/08/27 02:36:24;;;;;;;4.25;1.67;;;16.60;87.80;;;;;;4936900;29;20044;-63
2022/08/27 02:38:50;;;;;;;2.60;1.52;;;16.50;87.90;;;;;;4935249;29;20036;-66
2022/08/27 02:41:16;;;;;;;3.85;1.92;;;16.50;88.10;;;;;;4936353;29;20101;-66
2022/08/27 02:43:42;;;;;;;3.60;1.80;;;16.40;88.20;;;;;;4936376;29;20032;-64
2022/08/27 02:46:10;;;;;;;3.80;2.00;;;16.40;88.40;;;;;;4936729;29;20024;-65
2022/08/27 02:48:39;;;;;;;4.13;2.03;;;16.30;88.70;;;;;;4935738;29;20527;-63
2022/08/27 02:51:06;;;;;;;3.92;1.98;;;16.30;89.00;;;;;;4936157;29;20079;-64
2022/08/27 02:53:32;;;;;;;5.55;2.15;;;16.20;89.10;;;;;;4936265;29;20043;-63
2022/08/27 02:55:58;;;;;;;3.03;1.67;;;16.20;89.20;;;;;;4936152;29;20453;-65
2022/08/27 02:58:24;;;;;;;3.63;1.95;;;16.20;89.30;;;;;;4936541;29;20047;-66
2022/08/27 03:00:49;;;;;;;4.25;2.13;;;16.10;89.30;;;;;;4934866;29;20066;-64
2022/08/27 03:03:15;;;;;;;4.35;2.00;;;16.10;89.60;;;;;;4935987;29;20028;-66
2022/08/27 03:05:41;;;;;;;5.95;2.10;;;16.00;89.90;;;;;;4935953;29;20452;-66
2022/08/27 03:08:08;;;;;;;4.47;2.13;;;16.00;90.00;;;;;;4936623;29;20546;-65
2022/08/27 03:10:34;;;;;;;6.38;1.95;;;16.00;90.30;;;;;;4935973;29;20544;-66
2022/08/27 03:13:00;;;;;;;4.53;2.00;;;16.00;90.00;;;;;;4936142;29;20080;-66
2022/08/27 03:15:26;;;;;;;4.10;2.05;;;16.10;90.00;;;;;;4936010;29;20027;-66
2022/08/27 03:20:41;;;;;;;4.78;2.20;;;16.10;89.90;;;;;;4936240;29;20055;-64
2022/08/27 03:23:07;;;;;;;;;;;16.10;90.10;;;;;;4935985;29;20024;-66
2022/08/27 03:25:33;;;;;;;5.03;2.05;;;16.20;89.70;;;;;;4935768;29;19971;-66
2022/08/27 03:27:59;;;;;;;3.25;2.40;;;16.20;89.70;;;;;;4936235;29;20106;-66
2022/08/27 03:30:25;;;;;;;4.22;1.92;;;16.20;89.70;;;;;;4935792;29;20024;-66
2022/08/27 03:32:51;;;;;;;7.22;2.33;;;16.30;89.60;;;;;;4935490;29;20114;-65
2022/08/27 03:35:18;;;;;;;6.55;2.05;;;16.30;89.60;;;;;;4935579;29;20134;-65
2022/08/27 03:37:44;;;;;;;5.35;2.17;;;16.30;89.60;;;;;;4935060;29;20046;-65
2022/08/27 03:40:11;;;;;;;5.97;2.13;;;16.30;89.60;;;;;;4935755;29;20024;-64
2022/08/27 03:42:37;;;;;;;5.57;2.20;;;16.30;89.60;;;;;;4935083;29;20087;-66
2022/08/27 03:45:05;;;;;;;5.95;2.28;;;16.30;89.60;;;;;;4934204;29;20031;-66
2022/08/27 03:47:31;;;;;;;4.88;2.30;;;16.30;89.70;;;;;;4950172;29;20087;-65
2022/08/27 03:49:58;;;;;;;5.05;2.17;;;16.30;89.60;;;;;;4935480;29;20110;-65
2022/08/27 03:52:24;;;;;;;4.30;2.42;;;16.30;89.60;;;;;;4934684;29;20042;-65
2022/08/27 03:54:50;;;;;;;7.28;2.38;;;16.30;89.60;;;;;;4935270;29;20124;-66
2022/08/27 03:57:15;;;;;;;4.25;2.33;;;16.30;89.60;;;;;;4935496;29;20471;-65
2022/08/27 03:59:41;;;;;;;5.70;2.00;;;16.30;89.70;;;;;;4934509;29;20470;-67
2022/08/27 04:02:07;;;;;;;4.38;2.20;;;16.30;89.70;;;;;;4935453;29;20019;-61
2022/08/27 04:04:32;;;;;;;4.00;2.00;;;16.30;89.70;;;;;;4934309;29;20027;-60
2022/08/27 04:06:58;;;;;;;5.93;2.33;;;16.30;89.60;;;;;;4935351;29;20055;-60
2022/08/27 04:09:24;;;;;;;4.32;2.17;;;16.30;89.50;;;;;;4935221;29;20054;-61
2022/08/27 04:11:50;;;;;;;4.25;2.17;;;16.30;89.40;;;;;;4929580;29;20123;-61
2022/08/27 04:14:16;;;;;;;8.60;2.67;;;16.30;89.50;;;;;;4930777;29;20467;-63
2022/08/27 04:16:42;;;;;;;5.00;2.08;;;16.30;89.40;;;;;;4938228;29;20024;-66
2022/08/27 04:19:08;;;;;;;5.20;2.55;;;16.30;89.40;;;;;;4935164;29;20118;-60
2022/08/27 04:21:34;;;;;;;5.68;2.50;;;16.30;89.50;;;;;;4922127;29;20039;-58
2022/08/27 04:24:00;;;;;;;4.60;2.70;;;16.30;89.50;;;;;;4915773;29;20407;-60
2022/08/27 04:26:27;;;;;;;4.43;2.17;;;16.30;89.40;;;;;;4929013;29;20031;-59
2022/08/27 04:28:54;;;;;;;6.40;2.53;;;16.30;89.40;;;;;;4933813;29;20035;-61
2022/08/27 04:31:20;;;;;;;4.20;1.92;;;16.30;89.50;;;;;;4930986;29;20433;-60
2022/08/27 04:33:46;;;;;;;5.63;2.60;;;16.30;89.40;;;;;;4925512;29;20066;-62
2022/08/27 04:36:13;;;;;;;4.85;2.28;;;16.30;89.40;;;;;;4934150;29;20048;-61
2022/08/27 04:38:38;;;;;;;3.80;2.05;;;16.30;89.40;;;;;;4927015;29;20035;-61
2022/08/27 04:41:18;;;;;;;4.53;2.30;;;16.40;89.60;;;;;;4947801;29;20075;-61
2022/08/27 04:43:45;;;;;;;6.20;2.38;;;16.30;89.50;;;;;;4934541;29;20079;-63
2022/08/27 04:46:11;;;;;;;4.68;2.10;;;16.30;89.60;;;;;;4934716;29;20079;-61
2022/08/27 04:48:37;;;;;;;5.32;2.50;;;16.30;89.60;;;;;;4933808;29;20028;-62
2022/08/27 04:51:03;;;;;;;4.22;2.35;;;16.20;89.80;;;;;;4934567;29;20126;-64
2022/08/27 04:53:30;;;;;;;4.88;2.08;;;16.20;90.00;;;;;;4934355;29;20115;-64
2022/08/27 04:55:56;;;;;;;3.67;2.25;;;16.10;90.00;;;;;;4933880;29;20028;-61
2022/08/27 04:58:23;;;;;;;6.63;2.17;;;16.00;90.10;;;;;;4934551;29;20118;-62
2022/08/27 05:00:54;;;;;;;5.18;2.45;;;16.00;90.20;;;;;;4933840;29;20031;-61
2022/08/27 05:03:22;;;;;;;4.45;2.60;;;15.90;90.20;;;;;;4934470;29;20043;-63
2022/08/27 05:05:49;;;;;;;5.00;2.40;;;15.90;90.30;;;;;;4934285;29;20056;-61
2022/08/27 05:08:16;;;;;;;4.07;2.10;;;15.80;90.40;;;;;;4933998;29;20032;-64
2022/08/27 05:10:44;;;;;;;3.03;1.98;;;15.80;90.60;;;;;;4934058;29;20441;-64
2022/08/27 05:13:10;;;;;;;5.57;2.30;;;15.70;90.60;;;;;;4934286;29;20122;-68
2022/08/27 05:15:37;;;;;;;3.55;2.05;;;15.70;90.70;;;;;;4934730;29;20031;-68
2022/08/27 05:18:04;;;;;;;4.65;2.55;;;15.60;90.70;;;;;;4938470;29;20024;-67
2022/08/27 05:20:30;;;;;;;4.35;2.50;;;15.60;90.90;;;;;;4938120;29;20026;-64
2022/08/27 05:22:56;;;;;;;5.45;2.40;;;15.50;90.90;;;;;;4937652;29;20031;-64
2022/08/27 05:25:22;;;;;;;5.47;2.10;;;15.50;91.30;;;;;;4938275;29;20019;-67
2022/08/27 05:27:48;;;;;;;3.22;2.05;;;15.40;91.10;;;;;;4952560;29;20597;-64
2022/08/27 05:30:13;;;;;;;5.65;2.90;;;15.40;91.20;;;;;;4937750;29;20041;-64
2022/08/27 05:32:39;;;;;;;7.15;2.80;;;15.40;91.30;;;;;;4937551;29;20155;-64
2022/08/27 05:35:05;;;;;;;9.50;2.40;;;15.40;91.40;;;;;;4937637;29;20481;-68
2022/08/27 05:37:32;;;;;;;6.85;2.85;;;15.40;91.50;;;;;;4937260;29;20536;-69
2022/08/27 05:39:59;;;;;;;4.30;2.22;;;15.40;91.50;;;;;;4936745;29;20059;-69
2022/08/27 05:42:25;;;;;;;4.40;2.63;;;15.40;91.50;;;;;;4921998;29;20091;-70
2022/08/27 05:44:51;;;;;;;5.53;2.50;;;15.40;91.50;;;;;;4937189;29;20027;-68
2022/08/27 05:47:17;;;;;;;5.18;2.53;;;15.50;91.50;;;;;;4937419;29;20026;-68
2022/08/27 05:49:43;;;;;;;7.25;2.92;;;15.50;91.50;;;;;;4937900;29;20019;-66
2022/08/27 05:52:10;;;;;;;3.97;2.42;;;15.50;91.50;;;;;;4935840;29;20027;-67
2022/08/27 05:54:36;;;;;;;5.28;2.67;;;15.60;91.70;;;;;;4937563;29;20038;-67
2022/08/27 05:57:02;;;;;;;4.57;2.30;;;15.60;91.60;;;;;;4932769;29;20137;-61
2022/08/27 06:02:12;;;;;;;6.07;2.72;;;15.70;91.50;;;;;;4937224;29;20397;-61
2022/08/27 06:04:38;;;;;;;4.40;2.40;;;15.70;91.50;;;;;;4933441;29;20036;-60
2022/08/27 06:07:05;;;;;;;5.95;2.70;;;15.80;91.40;;;;;;4928771;29;20024;-61
2022/08/27 06:09:30;;;;;;;5.70;2.92;;;15.80;91.40;;;;;;4923199;29;20027;-61
2022/08/27 06:11:58;;;;;;;7.10;2.55;;;15.90;91.40;;;;;;4936317;29;20078;-60
2022/08/27 06:14:25;;;;;;;6.90;2.58;;;15.90;91.30;;;;;;4936915;29;20130;-62
2022/08/27 06:16:50;;;;;;;5.30;2.90;;;16.00;91.20;;;;;;4935451;29;20104;-62
2022/08/27 06:19:16;;;;;;;5.78;2.75;;;16.10;91.10;;;;;;4935420;29;20111;-61
2022/08/27 06:21:42;;;;;;;7.03;2.65;;;16.20;91.00;;;;;;4935944;29;20023;-61
2022/08/27 06:24:11;;;;;;;5.63;2.40;;;16.20;90.90;;;;;;4936416;29;20031;-62
2022/08/27 06:26:37;;;;;;;5.07;2.38;;;16.30;91.00;;;;;;4949593;28;20082;-61
2022/08/27 06:29:05;;;;;;;6.20;2.22;;;16.30;90.60;;;;;;4949178;29;20036;-63
2022/08/27 06:31:31;;;;;;;6.80;2.50;;;16.40;90.60;;;;;;4930869;29;20414;-61
2022/08/27 06:34:01;;;;;;;5.53;2.75;;;16.50;90.40;;;;;;4918036;29;20044;-61
2022/08/27 06:36:28;;;;;;;6.30;2.23;;;16.60;90.10;;;;;;4933852;29;20099;-61
2022/08/27 06:38:54;;;;;;;5.70;2.20;;;16.70;89.90;;;;;;4936322;29;20024;-61
2022/08/27 06:41:23;;;;;;;4.47;2.08;;;16.70;89.50;;;;;;4936601;29;20034;-61
2022/08/27 06:43:50;;;;;;;3.47;1.88;;;16.80;89.00;;;;;;4936809;29;20064;-61
2022/08/27 06:46:17;;;;;;;4.53;2.20;;;16.80;88.60;;;;;;4936260;29;20106;-61
2022/08/27 06:48:44;;;;;;;4.82;2.55;;;16.90;88.20;;;;;;4935797;29;20027;-62
2022/08/27 06:51:17;;;;;;;3.85;1.90;;;17.00;88.20;;;;;;4936551;29;20031;-62
2022/08/27 06:53:45;;;;;;;4.25;1.77;;;17.00;87.80;;;;;;4935758;29;20043;-62
2022/08/27 06:56:12;;;;;;;6.75;2.30;;;17.10;87.70;;;;;;4936933;29;20477;-63
2022/08/27 06:58:38;;;;;;;3.55;2.00;;;17.10;87.50;;;;;;4935835;29;20489;-66
2022/08/27 07:01:15;;;;;;;4.13;1.83;;;17.20;87.30;;;;;;4936442;29;20079;-63
2022/08/27 07:03:42;;;;;;;3.17;1.73;;;17.30;87.50;;;;;;4936181;29;20127;-61
2022/08/27 07:06:09;;;;;;;5.45;1.92;;;17.30;87.10;;;;;;4935963;29;20047;-65
2022/08/27 07:08:35;;;;;;;5.13;2.17;;;17.40;86.50;;;;;;4935970;29;20507;-64
2022/08/27 07:11:01;;;;;;;5.97;1.70;;;17.50;86.00;;;;;;4936166;29;20024;-62
2022/08/27 07:13:28;;;;;;;6.30;2.58;;;17.60;86.00;;;;;;4935259;29;20501;-61
2022/08/27 07:15:55;;;;;;;4.70;2.05;;;17.60;85.20;;;;;;4936253;29;20016;-66
2022/08/27 07:18:21;;;;;;;4.22;1.60;;;17.70;84.60;;;;;;4936222;29;20487;-63
2022/08/27 07:20:47;;;;;;;5.28;1.75;;;17.80;84.00;;;;;;4935288;29;20031;-61
2022/08/27 07:23:12;;;;;;;4.35;2.40;;;17.90;83.60;;;;;;4935983;29;20433;-61
2022/08/27 07:25:40;;;;;;;3.85;1.48;;;18.00;83.30;;;;;;4935657;29;20027;-62
2022/08/27 07:28:06;;;;;;;4.40;1.30;;;18.20;83.50;;;;;;4935449;29;20032;-65
2022/08/27 07:30:32;;;;;;;3.40;1.20;;;18.30;82.40;;;;;;4935800;29;20078;-61
2022/08/27 07:32:58;;;;;;;4.57;1.83;;;18.50;82.00;;;;;;4935691;29;20048;-69
2022/08/27 07:35:23;;;;;;;3.28;1.48;;;18.60;81.50;;;;;;4933851;29;20044;-61
2022/08/27 07:37:49;;;;;;;6.57;1.25;;;18.60;81.40;;;;;;4935127;29;20086;-64
2022/08/27 07:40:15;;;;;;;4.53;1.80;;;18.70;81.30;;;;;;4935660;29;20508;-60
2022/08/27 07:45:27;;;;;;;3.47;1.23;;;18.50;80.80;;;;;;4934729;29;20451;-61
2022/08/27 07:47:53;;;;;;;4.35;1.40;;;18.50;81.00;;;;;;4934914;29;20159;-63
2022/08/27 07:50:20;;;;;;;3.88;1.10;;;18.40;81.10;;;;;;4935431;29;20114;-60
2022/08/27 07:52:46;;;;;;;2.47;1.63;;;18.50;80.80;;;;;;4921290;29;20035;-60
2022/08/27 07:55:13;;;;;;;4.53;1.63;;;18.50;80.80;;;;;;4916143;29;20039;-61
2022/08/27 07:57:39;;;;;;;2.60;1.40;;;18.60;80.80;;;;;;4916237;29;20035;-62
2022/08/27 08:00:09;;;;;;;4.80;1.30;;;18.80;80.00;;;;;;4915013;29;20402;-60
2022/08/27 08:02:35;;;;;;;1.98;1.13;;;18.80;79.50;;;;;;4921343;29;20024;-60
2022/08/27 08:05:00;;;;;;;2.08;1.05;;;18.80;79.10;;;;;;4935140;29;20039;-60
2022/08/27 08:07:27;;;;;;;3.40;1.08;;;19.00;78.80;;;;;;4935387;29;20473;-60
2022/08/27 08:09:53;;;;;;;4.15;1.80;;;19.10;78.20;;;;;;4934635;29;20115;-60
2022/08/27 08:12:19;;;;;;;4.03;1.30;;;19.10;77.90;;;;;;4934998;29;20446;-60
2022/08/27 08:14:45;;;;;;;3.67;1.15;;;19.20;77.90;;;;;;4934822;29;20032;-60
2022/08/27 08:17:12;;;;;;;1.90;1.20;;;19.30;76.90;;;;;;4934557;29;20024;-60
2022/08/27 08:19:39;;;;;;;3.25;1.30;;;19.40;76.80;;;;;;4934839;29;20028;-60
2022/08/27 08:22:04;;;;;;;3.72;1.20;;;19.50;76.10;;;;;;4949566;28;20114;-60
2022/08/27 08:24:30;;;;;;;2.78;1.00;;;19.60;75.60;;;;;;4948859;29;20111;-60
2022/08/27 08:26:56;;;;;;;5.68;1.20;;;19.70;74.20;;;;;;4934835;29;20472;-60
2022/08/27 08:29:21;;;;;;;4.65;0.93;;;19.70;74.30;;;;;;4949569;29;20019;-60
2022/08/27 08:31:47;;;;;;;2.33;1.10;;;19.70;73.90;;;;;;4934019;29;20482;-60
2022/08/27 08:34:13;;;;;;;2.65;0.90;;;19.60;73.10;;;;;;4934610;29;20035;-61
2022/08/27 08:36:38;;;;;;;2.22;0.90;;;19.50;73.00;;;;;;4932918;29;20051;-60
2022/08/27 08:39:04;;;;;;;3.00;0.90;;;19.40;73.30;;;;;;4933677;29;20023;-60
2022/08/27 08:41:43;;;;;;;2.75;0.77;;;19.40;73.30;;;;;;4933136;29;20035;-61
2022/08/27 08:44:40;;;;;;;3.00;1.00;;;19.40;72.80;;;;;;4925917;29;20039;-60
2022/08/27 08:47:13;;;;;;;1.65;0.93;;;19.50;72.00;;;;;;4931934;29;20023;-62
2022/08/27 08:49:45;;;;;;;1.67;0.90;;;19.60;71.40;;;;;;4931834;29;20039;-60
2022/08/27 08:52:33;;;;;;;3.63;0.80;;;19.80;71.10;;;;;;4923178;29;20480;-60
2022/08/27 08:55:24;;;;;;;2.60;1.08;;;19.90;70.60;;;;;;4932231;29;20035;-61
2022/08/27 08:57:59;;;;;;;;;;;19.90;70.60;;;;;;4931982;29;20485;-61
2022/08/27 09:00:26;;;;;;;4.15;1.23;;;20.10;70.20;;;;;;4933806;29;20378;-60
2022/08/27 09:02:53;;;;;;;2.47;0.98;;;20.20;69.70;;;;;;4919007;29;20183;-61
2022/08/27 09:05:20;;;;;;;6.38;1.13;;;20.40;69.50;;;;;;4915156;29;20099;-66
2022/08/27 09:07:53;;;;;;;3.67;1.00;;;20.60;68.70;;;;;;4929237;29;20086;-63
2022/08/27 09:10:43;;;;;;;1.95;0.93;;;20.80;67.50;;;;;;4915162;29;20036;-64
2022/08/27 09:13:29;;;;;;;2.33;0.90;;;20.90;67.30;;;;;;4913646;29;20048;-62
2022/08/27 09:16:00;;;;;;;1.75;0.82;;;21.20;65.90;;;;;;4913029;29;20518;-61
2022/08/27 09:18:26;;;;;;;3.63;1.13;;;21.40;66.00;;;;;;4915282;29;20035;-62
2022/08/27 09:21:14;;;;;;;3.35;1.00;;;21.50;64.50;;;;;;4920187;29;20035;-63
2022/08/27 09:23:56;;;;;;;1.80;1.00;;;21.70;64.80;;;;;;4932783;29;20031;-62
2022/08/27 09:26:26;;;;;;;3.25;1.17;;;21.90;65.30;;;;;;4932885;29;20028;-62
2022/08/27 09:29:15;;;;;;;2.58;1.20;;;22.10;64.90;;;;;;4933567;29;20035;-62
2022/08/27 09:31:43;;;;;;;2.92;1.27;;;22.20;63.60;;;;;;4933270;29;20034;-69
2022/08/27 09:34:09;;;;;;;3.78;1.10;;;22.10;63.10;;;;;;4919531;29;20099;-61
2022/08/27 09:37:00;;;;;;;2.35;0.75;;;21.90;63.20;;;;;;4914312;29;20111;-61
2022/08/27 09:39:32;;;;;;;5.22;1.25;;;21.70;63.90;;;;;;4932990;29;20020;-63
2022/08/27 09:41:58;;;;;;;3.78;1.00;;;21.60;64.30;;;;;;4932940;29;20031;-67
2022/08/27 09:44:24;;;;;;;5.07;1.20;;;21.50;64.50;;;;;;4934142;29;20032;-68
2022/08/27 09:46:56;;;;;;;2.78;1.10;;;21.40;64.30;;;;;;4934028;29;20030;-69
2022/08/27 09:49:23;;;;;;;2.22;1.08;;;21.30;64.90;;;;;;4932134;29;20024;-69
2022/08/27 09:51:50;;;;;;;2.40;1.20;;;21.20;64.90;;;;;;4915332;29;20438;-68
2022/08/27 09:54:39;;;;;;;3.10;0.93;;;21.20;65.50;;;;;;4917625;29;20044;-59
2022/08/27 09:57:07;;;;;;;3.10;0.90;;;21.40;65.00;;;;;;4918366;29;20052;-60
2022/08/27 09:59:42;;;;;;;2.58;0.93;;;21.50;65.10;;;;;;4932601;29;20032;-63
2022/08/27 10:02:17;;;;;;;3.40;1.00;;;21.70;64.90;;;;;;4936081;29;20039;-64
2022/08/27 10:04:52;;;;;;;2.50;1.25;;;21.80;63.80;;;;;;4937349;29;20028;-64
2022/08/27 10:07:26;;;;;;;2.80;1.10;;;21.90;63.20;;;;;;4937308;29;20055;-60
2022/08/27 10:10:00;;;;;;;3.65;1.23;;;21.90;63.30;;;;;;4951141;29;20023;-66
2022/08/27 10:12:52;;;;;;;4.10;1.17;;;22.00;62.40;;;;;;4937167;29;20288;-65
2022/08/27 10:15:18;;;;;;;3.17;1.08;;;22.00;61.90;;;;;;4930808;29;20047;-64
2022/08/27 10:18:07;;;;;;;1.48;0.77;;;21.90;61.60;;;;;;4936395;29;20347;-63
2022/08/27 10:20:46;;;;;;;3.38;1.10;;;21.90;62.20;;;;;;4936974;29;20055;-65
2022/08/27 10:23:27;;;;;;;2.22;1.02;;;22.00;63.00;;;;;;4936690;29;20027;-63
2022/08/27 10:26:19;;;;;;;2.70;0.85;;;22.20;61.30;;;;;;4937123;29;20059;-64
2022/08/27 10:29:02;;;;;;;2.35;0.93;;;22.20;61.10;;;;;;4936962;29;20020;-67
2022/08/27 10:31:38;;;;;;;2.47;1.10;;;22.30;61.60;;;;;;4935883;29;20046;-65
2022/08/27 10:34:22;;;;;;;2.88;1.33;;;22.40;61.10;;;;;;4937018;29;20489;-61
2022/08/27 10:36:55;;;;;;;3.80;1.85;;;22.40;61.00;;;;;;4933371;29;20051;-60
2022/08/27 10:39:42;;;;;;;2.33;1.05;;;22.50;61.60;;;;;;4931124;29;20024;-60
2022/08/27 10:42:27;;;;;;;4.03;1.33;;;22.50;61.30;;;;;;4932686;29;20035;-60
2022/08/27 10:45:05;;;;;;;2.22;1.10;;;22.40;60.40;;;;;;4929450;29;20515;-59
2022/08/27 10:47:55;;;;;;;4.32;1.20;;;22.20;60.70;;;;;;4936414;29;20028;-59
2022/08/27 10:50:38;;;;;;;2.58;0.90;;;22.00;61.60;;;;;;4936677;29;20038;-59
2022/08/27 10:53:10;;;;;;;2.58;0.80;;;21.90;62.00;;;;;;4951121;29;20039;-61
2022/08/27 10:55:50;;;;;;;2.88;1.10;;;22.00;62.00;;;;;;4936437;29;20095;-59
2022/08/27 10:58:49;;;;;;;1.50;1.00;;;22.20;62.20;;;;;;4936016;29;20090;-59
2022/08/27 11:01:29;;;;;;;1.83;0.70;;;22.60;61.30;;;;;;4931271;29;20039;-62
2022/08/27 11:04:06;;;;;;;4.55;1.13;;;22.90;60.20;;;;;;4929327;29;20064;-59
2022/08/27 11:06:37;;;;;;;3.40;0.80;;;23.30;59.00;;;;;;5370208;23;20061;-60
2022/08/27 11:09:40;;;;;;;4.80;0.90;;;23.50;57.60;;;;;;4889139;29;20066;-62
2022/08/27 11:12:09;;;;;;;3.17;1.10;;;23.40;57.50;;;;;;4888380;29;20281;-65
2022/08/27 11:14:42;;;;;;;6.20;1.27;;;23.40;57.60;;;;;;4892033;29;20040;-63
2022/08/27 11:18:06;;;;;;;7.35;1.20;;;23.30;57.70;;;;;;4878252;29;20025;-63
2022/08/27 11:20:59;;;;;;;3.00;0.90;;;23.30;58.00;;;;;;4873144;29;20044;-63
2022/08/27 11:23:34;;;;;;;2.60;0.80;;;23.50;57.30;;;;;;4897014;29;20056;-64
2022/08/27 11:26:03;;;;;;;2.42;0.82;;;23.60;56.70;;;;;;4911113;29;20033;-62
2022/08/27 11:28:40;;;;;;;3.22;1.00;;;23.70;56.10;;;;;;4879855;29;20085;-62
2022/08/27 11:31:13;;;;;;;2.17;0.63;;;23.60;55.80;;;;;;4886154;29;20364;-62
2022/08/27 11:33:48;;;;;;;2.83;1.10;;;23.70;56.40;;;;;;4882047;29;20037;-62
2022/08/27 11:36:13;;;;;;;4.18;0.90;;;23.80;56.20;;;;;;4894942;29;20098;-63
2022/08/27 11:39:11;;;;;;;3.97;1.15;;;23.80;56.00;;;;;;4891687;29;20040;-62
2022/08/27 11:42:22;;;;;;;3.10;0.90;;;23.90;56.50;;;;;;4874548;29;20037;-62
2022/08/27 11:44:53;;;;;;;3.53;0.93;;;24.00;55.60;;;;;;4888843;29;20036;-64
2022/08/27 11:47:21;;;;;;;2.08;0.70;;;24.00;55.40;;;;;;4907902;29;20012;-63
2022/08/27 11:50:03;;;;;;;1.35;0.82;;;24.10;55.50;;;;;;4895168;29;20040;-63
2022/08/27 11:52:35;;;;;;;4.83;0.93;;;24.10;54.90;;;;;;4896123;29;20020;-63
2022/08/27 11:55:09;;;;;;;2.25;0.82;;;23.90;54.70;;;;;;4896505;29;20190;-63
2022/08/27 11:57:36;;;;;;;2.10;0.85;;;23.80;55.20;;;;;;4895292;29;20020;-62
2022/08/27 12:00:32;;;;;;;3.53;1.02;;;23.80;54.90;;;;;;4890975;29;20063;-62
2022/08/27 12:03:03;;;;;;;3.22;1.25;;;23.80;54.80;;;;;;4893811;29;20032;-62
2022/08/27 12:05:39;;;;;;;4.20;1.00;;;23.60;55.30;;;;;;4894516;29;20040;-63
2022/08/27 12:08:26;;;;;;;3.55;1.10;;;23.60;55.60;;;;;;4909042;29;20491;-62
2022/08/27 12:11:10;;;;;;;3.53;1.13;;;23.70;55.50;;;;;;4893457;29;20063;-63
2022/08/27 12:13:59;;;;;;;2.70;0.95;;;23.80;56.10;;;;;;4877033;29;20048;-62
2022/08/27 12:16:53;;;;;;;3.20;1.00;;;23.80;55.90;;;;;;4877830;29;20181;-63
2022/08/27 12:19:44;;;;;;;4.05;1.17;;;23.80;56.30;;;;;;4886977;29;20029;-64
2022/08/27 12:22:27;;;;;;;2.13;0.93;;;23.60;56.60;;;;;;4895397;29;20024;-63
2022/08/27 12:24:55;;;;;;;2.45;1.02;;;23.50;57.00;;;;;;4909542;29;20041;-63
2022/08/27 12:27:20;;;;;;;3.53;1.00;;;23.40;56.80;;;;;;4893828;29;20363;-63
2022/08/27 12:30:05;;;;;;;0.95;0.80;;;23.40;57.00;;;;;;4876365;29;20487;-63
2022/08/27 12:32:38;;;;;;;4.00;1.17;;;23.50;56.90;;;;;;4876027;29;20025;-63
2022/08/27 12:35:04;;;;;;;3.17;1.20;;;23.60;56.50;;;;;;4891465;29;20052;-62
2022/08/27 12:37:36;;;;;;;5.53;1.33;;;23.70;56.10;;;;;;4876385;29;20462;-63
2022/08/27 12:40:10;;;;;;;2.88;1.00;;;23.80;55.90;;;;;;4874743;29;20033;-63
2022/08/27 12:42:36;;;;;;;2.42;0.90;;;23.80;55.80;;;;;;4876136;29;20092;-62
2022/08/27 12:45:02;;;;;;;3.03;0.93;;;23.90;55.70;;;;;;4876756;29;20037;-62
2022/08/27 12:47:37;;;;;;;5.10;1.05;;;24.00;55.70;;;;;;4875840;29;20025;-62
2022/08/27 12:50:04;;;;;;;6.68;0.93;;;24.20;55.80;;;;;;4875304;29;20085;-63
2022/08/27 12:52:48;;;;;;;3.72;1.00;;;24.50;55.30;;;;;;4875613;29;20104;-62
2022/08/27 12:55:22;;;;;;;4.38;0.90;;;24.60;54.80;;;;;;4893739;29;20024;-62
2022/08/27 12:58:02;;;;;;;2.38;0.98;;;24.50;54.60;;;;;;4894845;29;20045;-66
2022/08/27 13:00:36;;;;;;;2.88;0.93;;;24.50;55.00;;;;;;4893534;29;20032;-64
2022/08/27 13:03:28;;;;;;;3.42;1.02;;;24.50;55.10;;;;;;4895192;29;20025;-63
2022/08/27 13:05:56;;;;;;;1.42;0.90;;;24.70;55.00;;;;;;4895856;29;20081;-64
2022/08/27 13:08:33;;;;;;;4.28;1.23;;;24.70;54.70;;;;;;4907482;29;20445;-65
2022/08/27 13:11:16;;;;;;;1.23;0.80;;;24.60;55.20;;;;;;4909398;29;20044;-64
2022/08/27 13:13:42;;;;;;;3.85;1.15;;;24.40;54.90;;;;;;4893634;29;20036;-64